Terminal Aerodrome Forecast
Issued by NWS

Home | Current Version | Previous Version | Text Only | Print | Product List | Glossary On
Versions: 1 2 3 4 5 6 7 8 9 10 11 12
369
FTUS43 KJKL 300537
TAFSME
TAF
KSME 300537Z 3006/0106 18005KT P6SM SCT250
     FM301300 18010KT P6SM SCT250
     FM301400 19012G21KT P6SM SCT150
     FM301700 19016G25KT P6SM SCT140
     FM302300 18015G21KT P6SM SCT200=

USA.gov is the U.S. government's official web portal to all federal, state and local government web resources and services.